sensor_id;sensor_type;location;lat;lon;timestamp;pressure;altitude;pressure_sealevel;temperature;humidity
10348;BME280;5220;43.192;23.284;2022-07-23T00:00:08;97122.06;;;24.50;40.44
10348;BME280;5220;43.192;23.284;2022-07-23T00:02:35;97128.63;;;24.54;40.86
10348;BME280;5220;43.192;23.284;2022-07-23T00:05:04;97118.41;;;24.57;41.50
10348;BME280;5220;43.192;23.284;2022-07-23T00:07:31;97113.31;;;24.56;41.94
10348;BME280;5220;43.192;23.284;2022-07-23T00:09:58;97117.41;;;24.58;42.11
10348;BME280;5220;43.192;23.284;2022-07-23T00:12:25;97116.78;;;24.56;42.03
10348;BME280;5220;43.192;23.284;2022-07-23T00:14:52;97121.06;;;24.57;41.44
10348;BME280;5220;43.192;23.284;2022-07-23T00:17:19;97112.47;;;24.55;41.46
10348;BME280;5220;43.192;23.284;2022-07-23T00:19:46;97111.22;;;24.51;41.10
10348;BME280;5220;43.192;23.284;2022-07-23T00:22:14;97104.88;;;24.52;40.74
10348;BME280;5220;43.192;23.284;2022-07-23T00:24:41;97106.09;;;24.50;40.86
10348;BME280;5220;43.192;23.284;2022-07-23T00:27:07;97103.06;;;24.53;40.71
10348;BME280;5220;43.192;23.284;2022-07-23T00:29:34;97103.84;;;24.53;40.74
10348;BME280;5220;43.192;23.284;2022-07-23T00:32:01;97101.00;;;24.55;41.21
10348;BME280;5220;43.192;23.284;2022-07-23T00:34:28;97104.09;;;24.58;41.79
10348;BME280;5220;43.192;23.284;2022-07-23T00:36:54;97104.13;;;24.65;41.02
10348;BME280;5220;43.192;23.284;2022-07-23T00:39:22;97095.34;;;24.65;41.36
10348;BME280;5220;43.192;23.284;2022-07-23T00:41:50;97100.66;;;24.65;42.04
10348;BME280;5220;43.192;23.284;2022-07-23T00:44:18;97101.00;;;24.55;43.33
10348;BME280;5220;43.192;23.284;2022-07-23T00:46:47;97100.75;;;24.43;43.79
10348;BME280;5220;43.192;23.284;2022-07-23T00:49:14;97097.25;;;24.43;45.29
10348;BME280;5220;43.192;23.284;2022-07-23T00:51:41;97094.78;;;24.41;45.52
10348;BME280;5220;43.192;23.284;2022-07-23T00:54:08;97097.69;;;24.46;45.23
10348;BME280;5220;43.192;23.284;2022-07-23T00:56:38;97101.75;;;24.42;44.93
10348;BME280;5220;43.192;23.284;2022-07-23T00:59:05;97099.47;;;24.39;44.62
10348;BME280;5220;43.192;23.284;2022-07-23T01:01:32;97101.06;;;24.34;44.52
10348;BME280;5220;43.192;23.284;2022-07-23T01:03:59;97105.34;;;24.28;43.96
10348;BME280;5220;43.192;23.284;2022-07-23T01:06:26;97100.97;;;24.21;44.41
10348;BME280;5220;43.192;23.284;2022-07-23T01:08:53;97103.41;;;24.16;43.67
10348;BME280;5220;43.192;23.284;2022-07-23T01:11:21;97102.50;;;24.08;43.34
10348;BME280;5220;43.192;23.284;2022-07-23T01:13:50;97100.84;;;24.07;43.28
10348;BME280;5220;43.192;23.284;2022-07-23T01:16:17;97102.06;;;24.05;43.40
10348;BME280;5220;43.192;23.284;2022-07-23T01:18:44;97097.56;;;24.05;43.37
10348;BME280;5220;43.192;23.284;2022-07-23T01:21:11;97096.13;;;24.03;43.46
10348;BME280;5220;43.192;23.284;2022-07-23T01:23:41;97091.81;;;24.02;43.04
10348;BME280;5220;43.192;23.284;2022-07-23T01:26:08;97094.28;;;24.03;43.26
10348;BME280;5220;43.192;23.284;2022-07-23T01:28:35;97089.34;;;24.00;42.90
10348;BME280;5220;43.192;23.284;2022-07-23T01:31:01;97089.34;;;24.00;43.31
10348;BME280;5220;43.192;23.284;2022-07-23T01:33:28;97091.56;;;23.97;43.39
10348;BME280;5220;43.192;23.284;2022-07-23T01:35:55;97086.69;;;24.00;42.89
10348;BME280;5220;43.192;23.284;2022-07-23T01:38:22;97085.81;;;23.93;43.16
10348;BME280;5220;43.192;23.284;2022-07-23T01:40:50;97091.13;;;23.93;43.61
10348;BME280;5220;43.192;23.284;2022-07-23T01:43:17;97091.69;;;23.89;43.59
10348;BME280;5220;43.192;23.284;2022-07-23T01:45:43;97094.72;;;23.86;44.13
10348;BME280;5220;43.192;23.284;2022-07-23T01:48:10;97091.25;;;23.85;43.40
10348;BME280;5220;43.192;23.284;2022-07-23T01:50:37;97095.75;;;23.85;43.04
10348;BME280;5220;43.192;23.284;2022-07-23T01:53:04;97095.50;;;23.80;42.29
10348;BME280;5220;43.192;23.284;2022-07-23T01:55:30;97093.22;;;23.77;42.41
10348;BME280;5220;43.192;23.284;2022-07-23T01:57:58;97096.50;;;23.79;42.89
10348;BME280;5220;43.192;23.284;2022-07-23T02:00:25;97096.16;;;23.82;42.63
10348;BME280;5220;43.192;23.284;2022-07-23T02:02:52;97092.28;;;23.84;42.64
10348;BME280;5220;43.192;23.284;2022-07-23T02:05:19;97094.56;;;23.87;43.54
10348;BME280;5220;43.192;23.284;2022-07-23T02:07:45;97092.34;;;23.91;44.17
10348;BME280;5220;43.192;23.284;2022-07-23T02:10:12;97096.44;;;23.93;44.51
10348;BME280;5220;43.192;23.284;2022-07-23T02:12:39;97096.88;;;23.97;44.52
10348;BME280;5220;43.192;23.284;2022-07-23T02:15:08;97095.84;;;23.98;45.06
10348;BME280;5220;43.192;23.284;2022-07-23T02:17:35;97095.84;;;23.98;44.39
10348;BME280;5220;43.192;23.284;2022-07-23T02:20:02;97104.22;;;23.95;44.82
10348;BME280;5220;43.192;23.284;2022-07-23T02:22:29;97098.50;;;23.98;44.51
10348;BME280;5220;43.192;23.284;2022-07-23T02:24:56;97107.75;;;24.02;44.63
10348;BME280;5220;43.192;23.284;2022-07-23T02:27:22;97100.78;;;24.01;45.04
10348;BME280;5220;43.192;23.284;2022-07-23T02:29:49;97109.13;;;23.98;45.53
10348;BME280;5220;43.192;23.284;2022-07-23T02:32:18;97111.19;;;23.96;45.68
10348;BME280;5220;43.192;23.284;2022-07-23T02:34:46;97111.19;;;23.96;45.60
10348;BME280;5220;43.192;23.284;2022-07-23T02:37:13;97110.56;;;23.94;45.26
10348;BME280;5220;43.192;23.284;2022-07-23T02:39:40;97110.13;;;23.90;45.21
10348;BME280;5220;43.192;23.284;2022-07-23T02:42:07;97110.50;;;23.87;45.39
10348;BME280;5220;43.192;23.284;2022-07-23T02:44:34;97114.38;;;23.85;45.41
10348;BME280;5220;43.192;23.284;2022-07-23T02:47:00;97111.00;;;23.76;45.14
10348;BME280;5220;43.192;23.284;2022-07-23T02:49:29;97118.13;;;23.76;45.92
10348;BME280;5220;43.192;23.284;2022-07-23T02:51:55;97121.00;;;23.74;46.15
10348;BME280;5220;43.192;23.284;2022-07-23T02:54:23;97119.34;;;23.73;45.88
10348;BME280;5220;43.192;23.284;2022-07-23T02:56:50;97124.47;;;23.75;45.83
10348;BME280;5220;43.192;23.284;2022-07-23T02:59:17;97129.78;;;23.75;45.13
10348;BME280;5220;43.192;23.284;2022-07-23T03:01:44;97125.69;;;23.72;45.01
10348;BME280;5220;43.192;23.284;2022-07-23T03:04:11;97124.41;;;23.68;44.89
10348;BME280;5220;43.192;23.284;2022-07-23T03:06:39;97129.66;;;23.62;45.22
10348;BME280;5220;43.192;23.284;2022-07-23T03:09:06;97126.38;;;23.60;45.28
10348;BME280;5220;43.192;23.284;2022-07-23T03:11:32;97129.22;;;23.58;45.84
10348;BME280;5220;43.192;23.284;2022-07-23T03:13:59;97128.00;;;23.61;46.17
10348;BME280;5220;43.192;23.284;2022-07-23T03:16:26;97137.25;;;23.65;46.28
10348;BME280;5220;43.192;23.284;2022-07-23T03:18:52;97126.63;;;23.65;46.19
10348;BME280;5220;43.192;23.284;2022-07-23T03:21:19;97128.44;;;23.64;46.52
10348;BME280;5220;43.192;23.284;2022-07-23T03:23:47;97134.59;;;23.65;46.26
10348;BME280;5220;43.192;23.284;2022-07-23T03:26:14;97131.75;;;23.66;46.45
10348;BME280;5220;43.192;23.284;2022-07-23T03:28:41;97135.88;;;23.69;46.49
10348;BME280;5220;43.192;23.284;2022-07-23T03:31:08;97141.94;;;23.63;46.15
10348;BME280;5220;43.192;23.284;2022-07-23T03:33:34;97138.84;;;23.59;46.53
10348;BME280;5220;43.192;23.284;2022-07-23T03:36:01;97142.03;;;23.54;47.15
10348;BME280;5220;43.192;23.284;2022-07-23T03:38:28;97140.22;;;23.55;47.00
10348;BME280;5220;43.192;23.284;2022-07-23T03:40:56;97137.75;;;23.53;47.56
10348;BME280;5220;43.192;23.284;2022-07-23T03:43:23;97144.69;;;23.54;47.42
10348;BME280;5220;43.192;23.284;2022-07-23T03:45:51;97144.69;;;23.54;47.22
10348;BME280;5220;43.192;23.284;2022-07-23T03:48:18;97144.69;;;23.54;47.10
10348;BME280;5220;43.192;23.284;2022-07-23T03:50:45;97140.84;;;23.57;46.89
10348;BME280;5220;43.192;23.284;2022-07-23T03:53:12;97139.22;;;23.56;46.74
10348;BME280;5220;43.192;23.284;2022-07-23T03:55:39;97141.22;;;23.54;46.69
10348;BME280;5220;43.192;23.284;2022-07-23T03:58:07;97145.44;;;23.48;46.13
10348;BME280;5220;43.192;23.284;2022-07-23T04:00:34;97145.28;;;23.50;46.32
10348;BME280;5220;43.192;23.284;2022-07-23T04:03:01;97139.59;;;23.53;46.34
10348;BME280;5220;43.192;23.284;2022-07-23T04:05:28;97139.00;;;23.58;47.44
10348;BME280;5220;43.192;23.284;2022-07-23T04:07:55;97142.94;;;23.62;47.68
10348;BME280;5220;43.192;23.284;2022-07-23T04:10:22;97142.75;;;23.63;48.39
10348;BME280;5220;43.192;23.284;2022-07-23T04:12:48;97147.31;;;23.69;48.30
10348;BME280;5220;43.192;23.284;2022-07-23T04:15:17;97149.22;;;23.75;48.66
10348;BME280;5220;43.192;23.284;2022-07-23T04:17:43;97142.31;;;23.81;49.88
10348;BME280;5220;43.192;23.284;2022-07-23T04:20:11;97146.63;;;23.82;49.91
10348;BME280;5220;43.192;23.284;2022-07-23T04:22:38;97153.00;;;23.87;50.08
10348;BME280;5220;43.192;23.284;2022-07-23T04:25:05;97157.69;;;23.85;50.46
10348;BME280;5220;43.192;23.284;2022-07-23T04:27:32;97154.84;;;23.87;50.69
10348;BME280;5220;43.192;23.284;2022-07-23T04:29:59;97155.28;;;23.90;50.81
10348;BME280;5220;43.192;23.284;2022-07-23T04:32:27;97163.44;;;23.89;51.30
10348;BME280;5220;43.192;23.284;2022-07-23T04:34:54;97163.44;;;23.89;51.68
10348;BME280;5220;43.192;23.284;2022-07-23T04:37:21;97154.63;;;23.88;51.40
10348;BME280;5220;43.192;23.284;2022-07-23T04:39:48;97151.34;;;23.86;52.44
10348;BME280;5220;43.192;23.284;2022-07-23T04:42:14;97150.16;;;23.89;52.64
10348;BME280;5220;43.192;23.284;2022-07-23T04:44:41;97152.25;;;23.93;52.82
10348;BME280;5220;43.192;23.284;2022-07-23T04:47:08;97153.50;;;23.97;52.91
10348;BME280;5220;43.192;23.284;2022-07-23T04:49:37;97155.59;;;24.02;53.58
10348;BME280;5220;43.192;23.284;2022-07-23T04:52:04;97156.88;;;24.06;53.98
10348;BME280;5220;43.192;23.284;2022-07-23T04:54:31;97154.31;;;24.13;54.26
10348;BME280;5220;43.192;23.284;2022-07-23T04:56:57;97158.41;;;24.15;55.65
10348;BME280;5220;43.192;23.284;2022-07-23T04:59:25;97158.84;;;24.19;56.11
10348;BME280;5220;43.192;23.284;2022-07-23T05:01:52;97169.50;;;24.19;56.72
10348;BME280;5220;43.192;23.284;2022-07-23T05:04:19;97166.00;;;24.18;57.43
10348;BME280;5220;43.192;23.284;2022-07-23T05:06:47;97164.72;;;24.14;57.97
10348;BME280;5220;43.192;23.284;2022-07-23T05:09:14;97161.44;;;24.12;58.34
10348;BME280;5220;43.192;23.284;2022-07-23T05:11:40;97165.72;;;24.13;58.65
10348;BME280;5220;43.192;23.284;2022-07-23T05:14:08;97169.50;;;24.19;58.29
10348;BME280;5220;43.192;23.284;2022-07-23T05:16:37;97173.59;;;24.21;59.10
10348;BME280;5220;43.192;23.284;2022-07-23T05:19:04;97174.03;;;24.25;59.04
10348;BME280;5220;43.192;23.284;2022-07-23T05:21:31;97160.78;;;24.31;59.35
10348;BME280;5220;43.192;23.284;2022-07-23T05:23:59;97167.56;;;24.34;60.07
10348;BME280;5220;43.192;23.284;2022-07-23T05:26:26;97169.19;;;24.35;60.78
10348;BME280;5220;43.192;23.284;2022-07-23T05:28:53;97169.84;;;24.37;61.42
10348;BME280;5220;43.192;23.284;2022-07-23T05:31:20;97167.84;;;24.45;62.23
10348;BME280;5220;43.192;23.284;2022-07-23T05:33:46;97166.69;;;24.54;62.27
10348;BME280;5220;43.192;23.284;2022-07-23T05:36:13;97174.72;;;24.61;62.55
10348;BME280;5220;43.192;23.284;2022-07-23T05:38:40;97178.03;;;24.70;62.69
10348;BME280;5220;43.192;23.284;2022-07-23T05:41:08;97180.56;;;24.78;63.06
10348;BME280;5220;43.192;23.284;2022-07-23T05:43:35;97171.00;;;24.83;62.84
10348;BME280;5220;43.192;23.284;2022-07-23T05:46:02;97175.34;;;24.91;63.24
10348;BME280;5220;43.192;23.284;2022-07-23T05:48:28;97171.09;;;24.96;63.49
10348;BME280;5220;43.192;23.284;2022-07-23T05:50:55;97181.13;;;25.01;64.79
10348;BME280;5220;43.192;23.284;2022-07-23T05:53:22;97169.94;;;25.12;64.49
10348;BME280;5220;43.192;23.284;2022-07-23T05:55:49;97182.25;;;25.20;65.08
10348;BME280;5220;43.192;23.284;2022-07-23T05:58:17;97167.13;;;25.27;65.60
10348;BME280;5220;43.192;23.284;2022-07-23T06:00:44;97174.75;;;25.36;65.36
10348;BME280;5220;43.192;23.284;2022-07-23T06:03:10;97172.69;;;25.38;66.67
10348;BME280;5220;43.192;23.284;2022-07-23T06:05:39;97170.34;;;25.50;66.43
10348;BME280;5220;43.192;23.284;2022-07-23T06:08:05;97173.84;;;25.63;67.29
10348;BME280;5220;43.192;23.284;2022-07-23T06:10:32;97162.59;;;25.68;68.66
10348;BME280;5220;43.192;23.284;2022-07-23T06:12:59;97168.97;;;25.80;67.65
10348;BME280;5220;43.192;23.284;2022-07-23T06:15:27;97164.09;;;25.90;67.38
10348;BME280;5220;43.192;23.284;2022-07-23T06:17:54;97160.63;;;26.03;68.64
10348;BME280;5220;43.192;23.284;2022-07-23T06:20:21;97163.94;;;26.18;67.48
10348;BME280;5220;43.192;23.284;2022-07-23T06:22:48;97161.88;;;26.33;66.85
10348;BME280;5220;43.192;23.284;2022-07-23T06:25:15;97161.06;;;26.52;65.31
10348;BME280;5220;43.192;23.284;2022-07-23T06:27:42;97163.91;;;26.70;63.12
10348;BME280;5220;43.192;23.284;2022-07-23T06:30:10;97157.34;;;26.86;62.10
10348;BME280;5220;43.192;23.284;2022-07-23T06:32:39;97151.13;;;27.05;62.04
10348;BME280;5220;43.192;23.284;2022-07-23T06:35:06;97157.22;;;27.19;61.18
10348;BME280;5220;43.192;23.284;2022-07-23T06:37:33;97156.16;;;27.33;59.69
10348;BME280;5220;43.192;23.284;2022-07-23T06:40:00;97151.97;;;27.50;57.71
10348;BME280;5220;43.192;23.284;2022-07-23T06:42:27;97146.75;;;27.68;57.55
10348;BME280;5220;43.192;23.284;2022-07-23T06:44:54;97156.94;;;27.85;58.32
10348;BME280;5220;43.192;23.284;2022-07-23T06:47:20;97155.44;;;27.95;57.18
10348;BME280;5220;43.192;23.284;2022-07-23T06:49:49;97157.44;;;28.06;57.02
10348;BME280;5220;43.192;23.284;2022-07-23T06:52:15;97152.63;;;28.15;56.36
10348;BME280;5220;43.192;23.284;2022-07-23T06:54:42;97154.44;;;28.21;55.80
10348;BME280;5220;43.192;23.284;2022-07-23T06:57:09;97153.50;;;28.34;52.88
10348;BME280;5220;43.192;23.284;2022-07-23T06:59:35;97159.81;;;28.46;51.81
10348;BME280;5220;43.192;23.284;2022-07-23T07:02:06;97152.13;;;28.49;46.92
10348;BME280;5220;43.192;23.284;2022-07-23T07:04:33;97144.41;;;28.66;45.80
10348;BME280;5220;43.192;23.284;2022-07-23T07:07:01;97155.88;;;28.73;45.47
10348;BME280;5220;43.192;23.284;2022-07-23T07:09:28;97150.41;;;28.86;43.82
10348;BME280;5220;43.192;23.284;2022-07-23T07:11:55;97146.53;;;29.00;40.68
10348;BME280;5220;43.192;23.284;2022-07-23T07:14:22;97144.28;;;29.15;40.81
10348;BME280;5220;43.192;23.284;2022-07-23T07:16:48;97143.34;;;29.28;42.02
10348;BME280;5220;43.192;23.284;2022-07-23T07:19:15;97142.72;;;29.44;42.02
10348;BME280;5220;43.192;23.284;2022-07-23T07:21:42;97142.72;;;29.44;38.13
10348;BME280;5220;43.192;23.284;2022-07-23T07:24:40;97142.66;;;29.51;36.15
10348;BME280;5220;43.192;23.284;2022-07-23T07:27:07;97143.50;;;29.63;36.97
10348;BME280;5220;43.192;23.284;2022-07-23T07:29:33;97143.88;;;29.66;35.90
10348;BME280;5220;43.192;23.284;2022-07-23T07:32:00;97153.09;;;29.89;37.76
10348;BME280;5220;43.192;23.284;2022-07-23T07:34:27;97147.16;;;29.98;38.86
10348;BME280;5220;43.192;23.284;2022-07-23T07:36:54;97147.31;;;30.15;37.81
10348;BME280;5220;43.192;23.284;2022-07-23T07:39:21;97145.00;;;30.30;39.26
10348;BME280;5220;43.192;23.284;2022-07-23T07:41:49;97154.16;;;30.41;39.01
10348;BME280;5220;43.192;23.284;2022-07-23T07:44:16;97142.13;;;30.43;37.25
10348;BME280;5220;43.192;23.284;2022-07-23T07:46:42;97142.84;;;30.50;36.53
10348;BME280;5220;43.192;23.284;2022-07-23T07:49:09;97149.25;;;30.61;36.10
10348;BME280;5220;43.192;23.284;2022-07-23T07:51:37;97148.66;;;30.70;37.47
10348;BME280;5220;43.192;23.284;2022-07-23T07:54:04;97147.97;;;30.86;34.94
10348;BME280;5220;43.192;23.284;2022-07-23T07:56:31;97147.75;;;31.00;35.27
10348;BME280;5220;43.192;23.284;2022-07-23T07:58:59;97151.00;;;31.13;35.04
10348;BME280;5220;43.192;23.284;2022-07-23T08:01:26;97148.03;;;31.26;34.07
10348;BME280;5220;43.192;23.284;2022-07-23T08:03:53;97145.34;;;31.38;36.28
10348;BME280;5220;43.192;23.284;2022-07-23T08:06:19;97149.53;;;31.34;34.13
10348;BME280;5220;43.192;23.284;2022-07-23T08:08:46;97152.78;;;31.48;34.85
10348;BME280;5220;43.192;23.284;2022-07-23T08:11:13;97152.91;;;31.53;34.96
10348;BME280;5220;43.192;23.284;2022-07-23T08:13:40;97147.59;;;31.69;35.38
10348;BME280;5220;43.192;23.284;2022-07-23T08:16:11;97145.31;;;31.78;35.90
10348;BME280;5220;43.192;23.284;2022-07-23T08:18:37;97150.91;;;31.88;37.69
10348;BME280;5220;43.192;23.284;2022-07-23T08:21:04;97148.69;;;32.02;37.35
10348;BME280;5220;43.192;23.284;2022-07-23T08:23:31;97144.72;;;32.04;38.80
10348;BME280;5220;43.192;23.284;2022-07-23T08:25:58;97142.03;;;32.04;38.34
10348;BME280;5220;43.192;23.284;2022-07-23T08:28:26;97141.31;;;32.09;38.94
10348;BME280;5220;43.192;23.284;2022-07-23T08:30:53;97142.88;;;32.05;37.24
10348;BME280;5220;43.192;23.284;2022-07-23T08:33:21;97141.25;;;32.04;36.36
10348;BME280;5220;43.192;23.284;2022-07-23T08:35:49;97141.16;;;32.15;35.30
10348;BME280;5220;43.192;23.284;2022-07-23T08:38:20;97142.25;;;32.31;36.63
10348;BME280;5220;43.192;23.284;2022-07-23T08:40:48;97138.91;;;32.40;36.99
10348;BME280;5220;43.192;23.284;2022-07-23T08:43:17;97138.56;;;32.54;36.86
10348;BME280;5220;43.192;23.284;2022-07-23T08:45:45;97137.63;;;32.60;38.01
10348;BME280;5220;43.192;23.284;2022-07-23T08:48:13;97141.19;;;32.65;36.96
10348;BME280;5220;43.192;23.284;2022-07-23T08:50:44;97137.00;;;32.74;37.39
10348;BME280;5220;43.192;23.284;2022-07-23T08:53:12;97139.22;;;32.77;36.70
10348;BME280;5220;43.192;23.284;2022-07-23T08:55:39;97134.66;;;32.78;37.10
10348;BME280;5220;43.192;23.284;2022-07-23T08:58:06;97136.66;;;32.87;35.59
10348;BME280;5220;43.192;23.284;2022-07-23T09:00:34;97133.38;;;32.85;35.13
10348;BME280;5220;43.192;23.284;2022-07-23T09:03:01;97133.84;;;32.99;35.39
10348;BME280;5220;43.192;23.284;2022-07-23T09:05:29;97135.00;;;33.03;35.88
10348;BME280;5220;43.192;23.284;2022-07-23T09:08:11;97143.72;;;33.10;34.87
10348;BME280;5220;43.192;23.284;2022-07-23T09:11:01;97135.91;;;33.09;34.95
10348;BME280;5220;43.192;23.284;2022-07-23T09:13:34;97138.16;;;33.17;36.07
10348;BME280;5220;43.192;23.284;2022-07-23T09:16:06;97139.84;;;33.23;35.53
10348;BME280;5220;43.192;23.284;2022-07-23T09:18:39;97133.22;;;33.30;35.05
10348;BME280;5220;43.192;23.284;2022-07-23T09:21:15;97134.63;;;33.38;34.72
10348;BME280;5220;43.192;23.284;2022-07-23T09:23:47;97130.38;;;33.42;34.18
10348;BME280;5220;43.192;23.284;2022-07-23T09:26:23;97129.44;;;33.53;33.42
10348;BME280;5220;43.192;23.284;2022-07-23T09:28:51;97132.31;;;33.46;33.72
10348;BME280;5220;43.192;23.284;2022-07-23T09:31:19;97135.94;;;33.57;33.47
10348;BME280;5220;43.192;23.284;2022-07-23T09:33:47;97136.59;;;33.64;34.17
10348;BME280;5220;43.192;23.284;2022-07-23T09:36:13;97123.91;;;33.65;32.54
10348;BME280;5220;43.192;23.284;2022-07-23T09:38:50;97129.75;;;33.78;33.50
10348;BME280;5220;43.192;23.284;2022-07-23T09:41:17;97125.50;;;33.87;33.98
10348;BME280;5220;43.192;23.284;2022-07-23T09:43:44;97122.31;;;33.90;32.52
10348;BME280;5220;43.192;23.284;2022-07-23T09:46:20;97123.16;;;33.96;33.48
10348;BME280;5220;43.192;23.284;2022-07-23T09:48:48;97118.63;;;34.01;32.13
10348;BME280;5220;43.192;23.284;2022-07-23T09:51:16;97117.84;;;34.06;31.42
10348;BME280;5220;43.192;23.284;2022-07-23T09:53:44;97116.03;;;34.12;32.51
10348;BME280;5220;43.192;23.284;2022-07-23T09:56:13;97114.34;;;34.05;31.17
10348;BME280;5220;43.192;23.284;2022-07-23T09:58:41;97118.97;;;34.10;31.06
10348;BME280;5220;43.192;23.284;2022-07-23T10:01:13;97120.19;;;33.97;30.87
10348;BME280;5220;43.192;23.284;2022-07-23T10:03:41;97110.03;;;34.10;31.69
10348;BME280;5220;43.192;23.284;2022-07-23T10:06:09;97110.88;;;34.10;31.21
10348;BME280;5220;43.192;23.284;2022-07-23T10:08:39;97109.09;;;34.21;31.36
10348;BME280;5220;43.192;23.284;2022-07-23T10:11:07;97103.19;;;34.29;31.08
10348;BME280;5220;43.192;23.284;2022-07-23T10:13:36;97098.31;;;34.26;31.49
10348;BME280;5220;43.192;23.284;2022-07-23T10:16:27;97103.25;;;34.34;30.91
10348;BME280;5220;43.192;23.284;2022-07-23T10:18:54;97099.16;;;34.31;30.65
10348;BME280;5220;43.192;23.284;2022-07-23T10:21:25;97101.09;;;34.36;30.87
10348;BME280;5220;43.192;23.284;2022-07-23T10:24:04;97103.69;;;34.21;29.49
10348;BME280;5220;43.192;23.284;2022-07-23T10:26:38;97102.69;;;34.32;29.85
10348;BME280;5220;43.192;23.284;2022-07-23T10:29:18;97100.66;;;34.49;29.37
10348;BME280;5220;43.192;23.284;2022-07-23T10:31:54;97102.03;;;34.51;30.99
10348;BME280;5220;43.192;23.284;2022-07-23T10:34:30;97098.56;;;34.56;30.22
10348;BME280;5220;43.192;23.284;2022-07-23T10:37:08;97097.44;;;34.52;30.03
10348;BME280;5220;43.192;23.284;2022-07-23T10:39:39;97085.09;;;34.61;29.37
10348;BME280;5220;43.192;23.284;2022-07-23T10:42:10;97079.47;;;34.73;30.08
10348;BME280;5220;43.192;23.284;2022-07-23T10:44:43;97082.25;;;34.83;29.30
10348;BME280;5220;43.192;23.284;2022-07-23T10:47:10;97073.59;;;34.86;28.32
10348;BME280;5220;43.192;23.284;2022-07-23T10:49:53;97083.38;;;34.97;27.94
10348;BME280;5220;43.192;23.284;2022-07-23T10:52:41;97074.38;;;34.81;27.46
10348;BME280;5220;43.192;23.284;2022-07-23T10:55:39;97079.84;;;34.91;28.09
10348;BME280;5220;43.192;23.284;2022-07-23T10:58:06;97076.84;;;34.83;27.74
10348;BME280;5220;43.192;23.284;2022-07-23T11:00:35;97070.63;;;34.87;26.99
10348;BME280;5220;43.192;23.284;2022-07-23T11:03:04;97072.81;;;34.90;28.00
10348;BME280;5220;43.192;23.284;2022-07-23T11:05:42;97068.44;;;34.79;28.07
10348;BME280;5220;43.192;23.284;2022-07-23T11:08:17;97066.59;;;34.90;27.93
10348;BME280;5220;43.192;23.284;2022-07-23T11:10:47;97067.66;;;34.84;26.60
10348;BME280;5220;43.192;23.284;2022-07-23T11:13:48;97068.47;;;34.89;27.62
10348;BME280;5220;43.192;23.284;2022-07-23T11:16:24;97064.19;;;34.98;27.40
10348;BME280;5220;43.192;23.284;2022-07-23T11:19:04;97065.31;;;35.07;27.52
10348;BME280;5220;43.192;23.284;2022-07-23T11:21:50;97062.06;;;35.05;27.16
10348;BME280;5220;43.192;23.284;2022-07-23T11:24:22;97062.31;;;35.04;28.07
10348;BME280;5220;43.192;23.284;2022-07-23T11:26:57;97060.72;;;35.08;27.40
10348;BME280;5220;43.192;23.284;2022-07-23T11:29:47;97060.75;;;35.13;27.97
10348;BME280;5220;43.192;23.284;2022-07-23T11:32:36;97055.00;;;34.99;27.03
10348;BME280;5220;43.192;23.284;2022-07-23T11:35:25;97051.22;;;34.95;27.26
10348;BME280;5220;43.192;23.284;2022-07-23T11:38:06;97048.34;;;35.12;27.92
10348;BME280;5220;43.192;23.284;2022-07-23T11:40:33;97047.19;;;35.08;27.82
10348;BME280;5220;43.192;23.284;2022-07-23T11:43:02;97040.75;;;35.19;27.74
10348;BME280;5220;43.192;23.284;2022-07-23T11:45:34;97045.34;;;35.14;27.04
10348;BME280;5220;43.192;23.284;2022-07-23T11:48:03;97042.13;;;35.22;28.76
10348;BME280;5220;43.192;23.284;2022-07-23T11:50:30;97031.28;;;35.12;27.78
10348;BME280;5220;43.192;23.284;2022-07-23T11:52:57;97037.81;;;35.21;28.27
10348;BME280;5220;43.192;23.284;2022-07-23T11:55:24;97039.16;;;35.18;28.51
10348;BME280;5220;43.192;23.284;2022-07-23T11:57:52;97034.31;;;35.30;27.86
10348;BME280;5220;43.192;23.284;2022-07-23T12:00:21;97039.72;;;35.40;27.95
10348;BME280;5220;43.192;23.284;2022-07-23T12:02:50;97038.94;;;35.45;27.30
10348;BME280;5220;43.192;23.284;2022-07-23T12:05:20;97039.19;;;35.38;27.78
10348;BME280;5220;43.192;23.284;2022-07-23T12:07:47;97042.75;;;35.49;28.04
10348;BME280;5220;43.192;23.284;2022-07-23T12:10:18;97036.53;;;35.48;27.92
10348;BME280;5220;43.192;23.284;2022-07-23T12:12:48;97036.53;;;35.48;27.27
10348;BME280;5220;43.192;23.284;2022-07-23T12:15:17;97036.78;;;35.52;28.50
10348;BME280;5220;43.192;23.284;2022-07-23T12:17:45;97030.34;;;35.58;27.80
10348;BME280;5220;43.192;23.284;2022-07-23T12:20:14;97032.19;;;35.52;28.68
10348;BME280;5220;43.192;23.284;2022-07-23T12:22:44;97025.44;;;35.55;28.21
10348;BME280;5220;43.192;23.284;2022-07-23T12:25:13;97030.03;;;35.54;26.77
10348;BME280;5220;43.192;23.284;2022-07-23T12:27:41;97029.44;;;35.37;27.54
10348;BME280;5220;43.192;23.284;2022-07-23T12:30:18;97024.34;;;35.51;26.77
10348;BME280;5220;43.192;23.284;2022-07-23T12:32:47;97012.75;;;35.60;27.47
10348;BME280;5220;43.192;23.284;2022-07-23T12:35:14;97021.41;;;35.57;26.95
10348;BME280;5220;43.192;23.284;2022-07-23T12:37:44;97015.72;;;35.64;27.45
10348;BME280;5220;43.192;23.284;2022-07-23T12:40:23;97014.66;;;35.70;27.82
10348;BME280;5220;43.192;23.284;2022-07-23T12:42:52;97010.84;;;35.66;27.33
10348;BME280;5220;43.192;23.284;2022-07-23T12:45:19;97017.06;;;35.67;26.65
10348;BME280;5220;43.192;23.284;2022-07-23T12:47:54;97009.25;;;35.65;26.87
10348;BME280;5220;43.192;23.284;2022-07-23T12:50:35;97008.16;;;35.71;27.59
10348;BME280;5220;43.192;23.284;2022-07-23T12:53:10;97001.63;;;35.72;27.04
10348;BME280;5220;43.192;23.284;2022-07-23T12:55:37;97004.91;;;35.79;27.04
10348;BME280;5220;43.192;23.284;2022-07-23T12:58:10;97004.91;;;35.79;27.16
10348;BME280;5220;43.192;23.284;2022-07-23T13:00:57;97005.16;;;35.88;28.52
10348;BME280;5220;43.192;23.284;2022-07-23T13:03:27;96985.13;;;35.94;28.29
10348;BME280;5220;43.192;23.284;2022-07-23T13:05:55;96988.13;;;35.92;27.07
10348;BME280;5220;43.192;23.284;2022-07-23T13:08:25;96987.56;;;35.75;27.29